Time;durP1;ratioP1;P1;durP2;ratioP2;P2;SDS_P1;SDS_P2;PMS_P1;PMS_P2;Temp;Humidity;BMP_temperature;BMP_pressure;BME280_temperature;BME280_humidity;BME280_pressure;Samples;Min_cycle;Max_cycle;Signal;HPM_P1;HPM_P2
2022/05/19 00:03:27;;;;;;;34.13;25.67;;;;;;;;;;5081716;28;20045;-67
2022/05/19 00:05:53;;;;;;;41.13;27.77;;;;;;;;;;5082969;28;20442;-67
2022/05/19 00:08:19;;;;;;;37.80;27.08;;;;;;;;;;5076166;28;20494;-68
2022/05/19 00:10:45;;;;;;;39.10;27.00;;;;;;;;;;5088180;28;20132;-67
2022/05/19 00:13:11;;;;;;;35.95;25.80;;;;;;;;;;5081535;28;20040;-68
2022/05/19 00:15:37;;;;;;;38.53;26.45;;;;;;;;;;5075239;28;20462;-67
2022/05/19 00:18:03;;;;;;;37.53;25.92;;;;;;;;;;5072439;28;20056;-67
2022/05/19 00:20:29;;;;;;;38.85;24.92;;;;;;;;;;5081061;28;20123;-68
2022/05/19 00:22:55;;;;;;;39.97;25.35;;;;;;;;;;5074971;28;20519;-68
2022/05/19 00:25:22;;;;;;;36.88;27.02;;;;;;;;;;5083800;28;20047;-67
2022/05/19 00:27:48;;;;;;;37.72;24.33;;;;;;;;;;5088058;28;20044;-67
2022/05/19 00:30:14;;;;;;;40.15;28.05;;;;;;;;;;5078289;28;20041;-67
2022/05/19 00:32:40;;;;;;;36.25;25.95;;;;;;;;;;5085555;28;20040;-67
2022/05/19 00:35:07;;;;;;;35.70;25.15;;;;;;;;;;5085416;28;20056;-67
2022/05/19 00:37:33;;;;;;;40.33;25.88;;;;;;;;;;5094822;28;20161;-67
2022/05/19 00:39:59;;;;;;;36.90;26.15;;;;;;;;;;5089636;28;20040;-67
2022/05/19 00:42:43;;;;;;;39.92;26.02;;;;;;;;;;5088268;28;20048;-67
2022/05/19 00:45:10;;;;;;;34.78;23.52;;;;;;;;;;5083807;28;20131;-67
2022/05/19 00:47:39;;;;;;;35.10;25.08;;;;;;;;;;5080353;28;20044;-66
2022/05/19 00:50:07;;;;;;;44.22;26.73;;;;;;;;;;5076578;28;20040;-67
2022/05/19 00:52:38;;;;;;;37.05;25.85;;;;;;;;;;5073545;28;20403;-66
2022/05/19 00:55:19;;;;;;;40.17;28.13;;;;;;;;;;5083773;28;20097;-67
2022/05/19 00:57:47;;;;;;;49.25;29.52;;;;;;;;;;5093977;28;20174;-67
2022/05/19 01:00:15;;;;;;;46.00;29.38;;;;;;;;;;5085489;28;20510;-67
2022/05/19 01:02:43;;;;;;;45.10;28.53;;;;;;;;;;5088692;28;20051;-66
2022/05/19 01:05:35;;;;;;;40.53;27.23;;;;;;;;;;5091654;28;20664;-67
2022/05/19 01:08:08;;;;;;;48.00;30.73;;;;;;;;;;5077010;28;20478;-66
2022/05/19 01:10:34;;;;;;;42.22;27.95;;;;;;;;;;5074224;28;20052;-68
2022/05/19 01:13:01;;;;;;;41.63;29.58;;;;;;;;;;5075611;28;20479;-67
2022/05/19 01:15:27;;;;;;;46.40;32.35;;;;;;;;;;5086090;28;20036;-66
2022/05/19 01:17:53;;;;;;;49.78;32.33;;;;;;;;;;5093695;28;20105;-67
2022/05/19 01:20:21;;;;;;;45.60;32.25;;;;;;;;;;5084335;28;20101;-67
2022/05/19 01:22:47;;;;;;;;;;;;;;;;;;5081034;28;20048;-67
2022/05/19 01:25:20;;;;;;;43.90;30.13;;;;;;;;;;5076483;28;19921;-67
2022/05/19 01:27:46;;;;;;;45.38;30.73;;;;;;;;;;5077297;28;20041;-66
2022/05/19 01:30:12;;;;;;;42.17;31.00;;;;;;;;;;5079735;28;20047;-67
2022/05/19 01:32:38;;;;;;;49.88;34.78;;;;;;;;;;5081750;28;20040;-66
2022/05/19 01:35:04;;;;;;;45.70;33.80;;;;;;;;;;5078786;28;20088;-67
2022/05/19 01:37:30;;;;;;;54.45;36.45;;;;;;;;;;5081971;28;20085;-67
2022/05/19 01:40:03;;;;;;;53.55;36.45;;;;;;;;;;5078733;28;20045;-67
2022/05/19 01:42:32;;;;;;;52.58;36.20;;;;;;;;;;5081090;28;20055;-67
2022/05/19 01:45:00;;;;;;;51.25;33.60;;;;;;;;;;5091224;28;20411;-67
2022/05/19 01:47:44;;;;;;;55.13;35.65;;;;;;;;;;5074065;28;20563;-67
2022/05/19 01:50:15;;;;;;;50.65;33.55;;;;;;;;;;5084432;28;20093;-67
2022/05/19 01:52:45;;;;;;;51.25;33.53;;;;;;;;;;5076030;28;20044;-67
2022/05/19 01:55:17;;;;;;;49.00;32.60;;;;;;;;;;5082303;28;20047;-67
2022/05/19 01:57:53;;;;;;;57.80;37.25;;;;;;;;;;5073954;28;20049;-67
2022/05/19 02:00:21;;;;;;;54.65;35.17;;;;;;;;;;5082414;28;20475;-66
2022/05/19 02:02:48;;;;;;;53.83;36.38;;;;;;;;;;5092936;28;20094;-67
2022/05/19 02:05:20;;;;;;;48.80;35.15;;;;;;;;;;5089859;28;20067;-67
2022/05/19 02:07:48;;;;;;;55.08;37.47;;;;;;;;;;5088283;28;20078;-67
2022/05/19 02:10:16;;;;;;;50.80;36.60;;;;;;;;;;5073596;28;20076;-66
2022/05/19 02:12:43;;;;;;;55.97;36.33;;;;;;;;;;5081509;28;20083;-67
2022/05/19 02:15:11;;;;;;;50.10;36.97;;;;;;;;;;5082955;28;20052;-67
2022/05/19 02:17:37;;;;;;;52.30;36.60;;;;;;;;;;5087140;28;20127;-66
2022/05/19 02:20:08;;;;;;;60.30;40.30;;;;;;;;;;5079755;28;20475;-67
2022/05/19 02:22:35;;;;;;;49.88;34.55;;;;;;;;;;5092238;28;20414;-67
2022/05/19 02:25:18;;;;;;;52.53;35.08;;;;;;;;;;5083282;28;20033;-67
2022/05/19 02:27:56;;;;;;;52.58;35.88;;;;;;;;;;5092904;28;20047;-67
2022/05/19 02:30:24;;;;;;;57.65;38.38;;;;;;;;;;5092775;28;20043;-67
2022/05/19 02:32:51;;;;;;;55.40;36.05;;;;;;;;;;5085001;28;20089;-67
2022/05/19 02:35:17;;;;;;;53.10;36.83;;;;;;;;;;5083021;28;20385;-67
2022/05/19 02:37:43;;;;;;;52.55;35.97;;;;;;;;;;5081222;28;20056;-67
2022/05/19 02:40:10;;;;;;;58.35;39.30;;;;;;;;;;5085849;28;20040;-67
2022/05/19 02:42:37;;;;;;;56.22;38.13;;;;;;;;;;5081999;28;20052;-67
2022/05/19 02:45:03;;;;;;;58.50;38.67;;;;;;;;;;5075976;28;20066;-68
2022/05/19 02:47:29;;;;;;;54.17;37.95;;;;;;;;;;5072345;28;20044;-67
2022/05/19 02:49:55;;;;;;;55.53;37.80;;;;;;;;;;5084216;28;20101;-67
2022/05/19 02:52:21;;;;;;;58.90;38.22;;;;;;;;;;5076754;28;20040;-67
2022/05/19 02:54:47;;;;;;;60.78;39.30;;;;;;;;;;5076224;28;20494;-67
2022/05/19 02:57:13;;;;;;;53.33;35.85;;;;;;;;;;5077656;28;20040;-67
2022/05/19 02:59:39;;;;;;;56.53;38.40;;;;;;;;;;5088744;28;20509;-67
2022/05/19 03:02:05;;;;;;;53.25;36.58;;;;;;;;;;5084996;28;20040;-67
2022/05/19 03:04:31;;;;;;;55.47;36.95;;;;;;;;;;5091625;28;20066;-67
2022/05/19 03:06:57;;;;;;;57.55;37.42;;;;;;;;;;5085287;28;20048;-67
2022/05/19 03:09:23;;;;;;;64.90;43.85;;;;;;;;;;5075005;28;20041;-67
2022/05/19 03:11:49;;;;;;;59.70;39.03;;;;;;;;;;5087288;28;20084;-67
2022/05/19 03:14:15;;;;;;;54.67;37.75;;;;;;;;;;5077957;28;20483;-67
2022/05/19 03:16:41;;;;;;;55.63;38.13;;;;;;;;;;5082793;28;20402;-67
2022/05/19 03:19:09;;;;;;;88.35;42.88;;;;;;;;;;5087196;28;20057;-67
2022/05/19 03:21:35;;;;;;;64.22;40.33;;;;;;;;;;5081774;28;20043;-67
2022/05/19 03:24:02;;;;;;;66.28;40.00;;;;;;;;;;5080476;28;20047;-67
2022/05/19 03:26:28;;;;;;;62.40;38.47;;;;;;;;;;5079858;28;20113;-67
2022/05/19 03:28:54;;;;;;;64.03;42.03;;;;;;;;;;5078298;28;20483;-66
2022/05/19 03:31:20;;;;;;;57.40;38.97;;;;;;;;;;5081270;28;20051;-66
2022/05/19 03:33:47;;;;;;;55.30;37.15;;;;;;;;;;5083491;28;20048;-67
2022/05/19 03:36:13;;;;;;;91.43;46.55;;;;;;;;;;5086775;28;20044;-67
2022/05/19 03:38:39;;;;;;;73.05;42.20;;;;;;;;;;5090268;28;20118;-67
2022/05/19 03:41:05;;;;;;;61.60;39.63;;;;;;;;;;5088055;28;20041;-66
2022/05/19 03:43:31;;;;;;;75.72;42.88;;;;;;;;;;5075348;28;20080;-67
2022/05/19 03:45:57;;;;;;;66.85;43.50;;;;;;;;;;5082858;28;20546;-67
2022/05/19 03:48:23;;;;;;;85.38;43.65;;;;;;;;;;5092873;28;20078;-67
2022/05/19 03:50:49;;;;;;;73.63;45.55;;;;;;;;;;5090112;28;20180;-67
2022/05/19 03:53:15;;;;;;;60.35;41.42;;;;;;;;;;5077188;28;20082;-67
2022/05/19 03:55:41;;;;;;;59.10;39.50;;;;;;;;;;5094281;28;20048;-67
2022/05/19 03:58:07;;;;;;;66.60;40.97;;;;;;;;;;5075908;28;20044;-67
2022/05/19 04:00:33;;;;;;;60.10;39.70;;;;;;;;;;5073489;28;20041;-67
2022/05/19 04:02:59;;;;;;;67.45;40.15;;;;;;;;;;5091746;28;20048;-67
2022/05/19 04:05:29;;;;;;;61.25;40.40;;;;;;;;;;5085911;28;20506;-67
2022/05/19 04:07:55;;;;;;;76.10;42.50;;;;;;;;;;5077152;28;20036;-68
2022/05/19 04:10:21;;;;;;;71.30;40.97;;;;;;;;;;5082924;28;20556;-67
2022/05/19 04:12:47;;;;;;;64.43;40.90;;;;;;;;;;5086666;28;20041;-67
2022/05/19 04:15:14;;;;;;;60.60;39.00;;;;;;;;;;5091865;28;20044;-67
2022/05/19 04:17:40;;;;;;;57.85;40.33;;;;;;;;;;5093578;28;20380;-67
2022/05/19 04:20:07;;;;;;;58.90;38.60;;;;;;;;;;5089796;28;20044;-67
2022/05/19 04:22:34;;;;;;;48.58;35.28;;;;;;;;;;5082470;28;20041;-67
2022/05/19 04:25:00;;;;;;;57.47;39.85;;;;;;;;;;5089051;28;20051;-67
2022/05/19 04:27:27;;;;;;;53.70;38.45;;;;;;;;;;5080971;28;20149;-67
2022/05/19 04:29:54;;;;;;;59.83;38.17;;;;;;;;;;5083329;28;20048;-67
2022/05/19 04:32:20;;;;;;;55.65;36.20;;;;;;;;;;5074646;28;20048;-67
2022/05/19 04:34:46;;;;;;;87.65;47.70;;;;;;;;;;5087851;28;20071;-69
2022/05/19 04:37:12;;;;;;;69.72;38.72;;;;;;;;;;5080685;28;20056;-67
2022/05/19 04:39:38;;;;;;;61.30;37.92;;;;;;;;;;5075443;28;20044;-67
2022/05/19 04:42:05;;;;;;;85.80;43.05;;;;;;;;;;5087218;28;20068;-67
2022/05/19 04:44:31;;;;;;;80.47;40.90;;;;;;;;;;5083475;28;20102;-67
2022/05/19 04:46:57;;;;;;;53.65;36.70;;;;;;;;;;5084027;28;20087;-67
2022/05/19 04:49:23;;;;;;;126.00;50.10;;;;;;;;;;5088600;28;20040;-68
2022/05/19 04:51:49;;;;;;;228.02;75.22;;;;;;;;;;5083634;28;20530;-67
2022/05/19 04:54:15;;;;;;;109.40;47.65;;;;;;;;;;5090492;28;20040;-67
2022/05/19 04:56:41;;;;;;;130.25;52.22;;;;;;;;;;5088715;28;20040;-67
2022/05/19 04:59:13;;;;;;;65.40;38.78;;;;;;;;;;5087452;28;20617;-67
2022/05/19 05:01:40;;;;;;;71.55;38.50;;;;;;;;;;5074523;28;20041;-67
2022/05/19 05:04:06;;;;;;;64.43;38.80;;;;;;;;;;5077793;28;20040;-67
2022/05/19 05:06:32;;;;;;;74.78;37.47;;;;;;;;;;5078980;28;20071;-67
2022/05/19 05:08:59;;;;;;;50.35;32.92;;;;;;;;;;5093333;28;20111;-67
2022/05/19 05:11:25;;;;;;;45.22;32.30;;;;;;;;;;5093999;28;20575;-67
2022/05/19 05:13:51;;;;;;;53.58;32.33;;;;;;;;;;5079986;28;20127;-67
2022/05/19 05:16:17;;;;;;;53.17;33.35;;;;;;;;;;5089344;28;20127;-67
2022/05/19 05:18:43;;;;;;;46.20;31.92;;;;;;;;;;5093590;28;20040;-67
2022/05/19 05:21:11;;;;;;;66.40;33.92;;;;;;;;;;5087304;28;20036;-67
2022/05/19 05:23:37;;;;;;;105.18;43.17;;;;;;;;;;5080916;28;20053;-66
2022/05/19 05:26:03;;;;;;;39.45;27.95;;;;;;;;;;5089744;28;20044;-67
2022/05/19 05:28:30;;;;;;;36.78;27.65;;;;;;;;;;5089643;28;20383;-67
2022/05/19 05:30:56;;;;;;;44.50;30.08;;;;;;;;;;5087451;28;20395;-68
2022/05/19 05:33:22;;;;;;;36.15;28.13;;;;;;;;;;5090807;28;20043;-67
2022/05/19 05:35:48;;;;;;;36.47;27.42;;;;;;;;;;5090659;28;20080;-68
2022/05/19 05:38:14;;;;;;;47.42;29.42;;;;;;;;;;5082971;28;20097;-68
2022/05/19 05:40:40;;;;;;;38.88;29.27;;;;;;;;;;5091663;28;20054;-67
2022/05/19 05:43:19;;;;;;;34.97;27.70;;;;;;;;;;5086574;28;20044;-68
2022/05/19 05:45:45;;;;;;;;;;;;;;;;;;5077583;28;20082;-67
2022/05/19 05:48:11;;;;;;;42.08;28.50;;;;;;;;;;5089595;28;19959;-67
2022/05/19 05:50:37;;;;;;;30.95;24.75;;;;;;;;;;5085722;28;20044;-67
2022/05/19 05:53:04;;;;;;;35.90;26.00;;;;;;;;;;5087340;28;20054;-68
2022/05/19 05:55:30;;;;;;;30.90;23.20;;;;;;;;;;5086094;28;20404;-67
2022/05/19 05:57:56;;;;;;;32.00;22.55;;;;;;;;;;5091916;28;20044;-67
2022/05/19 06:00:23;;;;;;;28.50;22.25;;;;;;;;;;5078975;28;20096;-67
2022/05/19 06:02:49;;;;;;;26.52;21.55;;;;;;;;;;5087449;28;20066;-67
2022/05/19 06:05:15;;;;;;;27.77;19.35;;;;;;;;;;5080941;28;20076;-67
2022/05/19 06:07:41;;;;;;;23.33;17.58;;;;;;;;;;5077275;28;20548;-68
2022/05/19 06:10:09;;;;;;;23.20;18.17;;;;;;;;;;5089806;28;20040;-67
2022/05/19 06:12:34;;;;;;;28.08;20.10;;;;;;;;;;5085898;28;20047;-66
2022/05/19 06:15:00;;;;;;;23.08;18.42;;;;;;;;;;5080959;28;20040;-66
2022/05/19 06:17:26;;;;;;;24.10;18.60;;;;;;;;;;5073250;28;20070;-67
2022/05/19 06:19:53;;;;;;;23.15;18.02;;;;;;;;;;5086006;28;20036;-66
2022/05/19 06:22:22;;;;;;;24.27;18.20;;;;;;;;;;5087952;28;20494;-66
2022/05/19 06:24:48;;;;;;;27.63;18.95;;;;;;;;;;5088434;28;20395;-66
2022/05/19 06:27:14;;;;;;;25.55;18.10;;;;;;;;;;5073439;28;20051;-67
2022/05/19 06:29:40;;;;;;;24.48;17.05;;;;;;;;;;5076246;28;20124;-67
2022/05/19 06:32:06;;;;;;;20.02;16.67;;;;;;;;;;5074807;28;20448;-66
2022/05/19 06:34:32;;;;;;;23.17;17.52;;;;;;;;;;5086893;28;20101;-67
2022/05/19 06:36:58;;;;;;;20.88;17.40;;;;;;;;;;5081549;28;20434;-67
2022/05/19 06:39:24;;;;;;;34.90;19.75;;;;;;;;;;5082470;28;20051;-67
2022/05/19 06:42:02;;;;;;;20.92;15.68;;;;;;;;;;5085528;28;20044;-67
2022/05/19 06:44:29;;;;;;;18.30;14.27;;;;;;;;;;5075373;28;20513;-67
2022/05/19 06:46:55;;;;;;;20.38;13.80;;;;;;;;;;5078784;28;20059;-67
2022/05/19 06:49:21;;;;;;;16.52;12.38;;;;;;;;;;5087977;28;20151;-67
2022/05/19 06:51:47;;;;;;;15.15;11.00;;;;;;;;;;5072184;28;20129;-67
2022/05/19 06:54:14;;;;;;;21.13;12.15;;;;;;;;;;5073307;28;20071;-67
2022/05/19 06:56:40;;;;;;;13.68;10.27;;;;;;;;;;5083214;28;20029;-67
2022/05/19 06:59:07;;;;;;;14.68;10.50;;;;;;;;;;5089405;28;20604;-67
2022/05/19 07:01:33;;;;;;;26.77;13.02;;;;;;;;;;5089682;28;20127;-67
2022/05/19 07:03:59;;;;;;;11.90;9.50;;;;;;;;;;5104915;28;20128;-67
2022/05/19 07:06:25;;;;;;;11.65;9.60;;;;;;;;;;5077611;28;20067;-67
2022/05/19 07:08:51;;;;;;;11.30;8.88;;;;;;;;;;5092670;28;20048;-67
2022/05/19 07:11:26;;;;;;;11.25;8.80;;;;;;;;;;5079852;28;20418;-67
2022/05/19 07:13:53;;;;;;;12.05;9.43;;;;;;;;;;5096383;28;20052;-67
2022/05/19 07:16:19;;;;;;;10.30;8.45;;;;;;;;;;5087126;28;20040;-67
2022/05/19 07:18:45;;;;;;;13.68;8.80;;;;;;;;;;5079592;28;20067;-67
2022/05/19 07:21:12;;;;;;;12.52;8.55;;;;;;;;;;5095210;28;20036;-67
2022/05/19 07:23:39;;;;;;;33.03;12.75;;;;;;;;;;5080138;28;20051;-67
2022/05/19 07:26:06;;;;;;;14.70;8.65;;;;;;;;;;5088100;28;20048;-68
2022/05/19 07:28:32;;;;;;;16.38;10.23;;;;;;;;;;5085617;28;20040;-67
2022/05/19 07:30:58;;;;;;;11.70;8.10;;;;;;;;;;5095867;28;20094;-68
2022/05/19 07:33:28;;;;;;;9.85;7.85;;;;;;;;;;5078725;28;20044;-67
2022/05/19 07:35:54;;;;;;;31.02;11.95;;;;;;;;;;5091061;28;20414;-69
2022/05/19 07:38:20;;;;;;;14.05;8.63;;;;;;;;;;5079008;28;20053;-68
2022/05/19 07:40:49;;;;;;;9.52;8.18;;;;;;;;;;5092288;28;20059;-67
2022/05/19 07:45:59;;;;;;;14.95;8.13;;;;;;;;;;5082193;28;20461;-67
2022/05/19 07:48:26;;;;;;;13.27;7.93;;;;;;;;;;5076189;28;20048;-67
2022/05/19 07:50:51;;;;;;;10.55;6.95;;;;;;;;;;5088361;28;20044;-67
2022/05/19 07:53:17;;;;;;;11.30;8.25;;;;;;;;;;5075056;28;20101;-67
2022/05/19 07:55:44;;;;;;;12.23;8.23;;;;;;;;;;5088268;28;20134;-67
2022/05/19 07:58:10;;;;;;;10.73;8.43;;;;;;;;;;5094578;28;20101;-67
2022/05/19 08:00:36;;;;;;;10.27;7.55;;;;;;;;;;5092715;28;20097;-68
2022/05/19 08:03:02;;;;;;;11.10;7.72;;;;;;;;;;5078794;28;20048;-67
2022/05/19 08:05:28;;;;;;;10.95;7.65;;;;;;;;;;5078636;28;20561;-67
2022/05/19 08:07:54;;;;;;;11.25;7.72;;;;;;;;;;5077541;28;20459;-67
2022/05/19 08:10:20;;;;;;;14.70;8.10;;;;;;;;;;5075027;28;20051;-67
2022/05/19 08:15:34;;;;;;;14.40;8.75;;;;;;;;;;5078506;28;20047;-68
2022/05/19 08:18:00;;;;;;;18.10;8.90;;;;;;;;;;5077009;28;20531;-68
2022/05/19 08:20:28;;;;;;;12.30;8.80;;;;;;;;;;5079231;28;20044;-68
2022/05/19 08:22:54;;;;;;;16.40;9.30;;;;;;;;;;5085334;28;20083;-68
2022/05/19 08:25:24;;;;;;;12.35;8.90;;;;;;;;;;5080820;28;20495;-68
2022/05/19 08:27:50;;;;;;;13.93;8.90;;;;;;;;;;5090989;28;20047;-68
2022/05/19 08:30:16;;;;;;;13.23;9.05;;;;;;;;;;5077638;28;20054;-68
2022/05/19 08:32:42;;;;;;;28.73;10.43;;;;;;;;;;5090264;28;20036;-68
2022/05/19 08:35:09;;;;;;;18.48;11.43;;;;;;;;;;5078935;28;20052;-68
2022/05/19 08:37:35;;;;;;;13.30;9.73;;;;;;;;;;5079409;28;20051;-67
2022/05/19 08:40:01;;;;;;;16.95;11.55;;;;;;;;;;5094602;28;20059;-68
2022/05/19 08:42:29;;;;;;;15.98;11.68;;;;;;;;;;5085878;28;20044;-68
2022/05/19 08:44:57;;;;;;;19.30;12.63;;;;;;;;;;5094592;28;20040;-68
2022/05/19 08:47:26;;;;;;;22.63;13.50;;;;;;;;;;5087585;28;20043;-67
2022/05/19 08:50:03;;;;;;;18.55;12.75;;;;;;;;;;5091530;28;20040;-68
2022/05/19 08:52:49;;;;;;;19.38;13.80;;;;;;;;;;5076142;28;20542;-67
2022/05/19 08:55:16;;;;;;;20.52;13.05;;;;;;;;;;5074703;28;20040;-68
2022/05/19 08:57:47;;;;;;;16.70;12.90;;;;;;;;;;5081259;28;20098;-68
2022/05/19 09:00:27;;;;;;;22.42;14.07;;;;;;;;;;5075050;28;20440;-68
2022/05/19 09:02:59;;;;;;;22.15;14.63;;;;;;;;;;5075220;28;20463;-68
2022/05/19 09:05:31;;;;;;;20.55;13.88;;;;;;;;;;5082902;28;20080;-68
2022/05/19 09:08:16;;;;;;;20.40;14.98;;;;;;;;;;5092203;28;20125;-68
2022/05/19 09:10:47;;;;;;;20.10;14.95;;;;;;;;;;5091280;28;20514;-68
2022/05/19 09:13:16;;;;;;;18.67;14.48;;;;;;;;;;5087911;28;20044;-68
2022/05/19 09:15:44;;;;;;;21.58;15.38;;;;;;;;;;5092104;28;20083;-68
2022/05/19 09:18:11;;;;;;;23.52;15.43;;;;;;;;;;5085816;28;20040;-68
2022/05/19 09:20:47;;;;;;;21.67;15.05;;;;;;;;;;5077036;28;20108;-68
2022/05/19 09:23:13;;;;;;;30.42;17.02;;;;;;;;;;5080373;28;20036;-68
2022/05/19 09:25:42;;;;;;;22.25;16.20;;;;;;;;;;5099653;28;20051;-68
2022/05/19 09:28:09;;;;;;;24.67;15.05;;;;;;;;;;5090553;28;20048;-68
2022/05/19 09:30:37;;;;;;;19.23;14.52;;;;;;;;;;5080638;28;20075;-69
2022/05/19 09:33:14;;;;;;;24.58;15.52;;;;;;;;;;5093603;28;20200;-68
2022/05/19 09:35:43;;;;;;;23.48;16.42;;;;;;;;;;5077846;28;20048;-70
2022/05/19 09:38:24;;;;;;;22.95;16.45;;;;;;;;;;5084630;28;20075;-70
2022/05/19 09:40:50;;;;;;;25.45;16.52;;;;;;;;;;5091657;28;20040;-68
2022/05/19 09:43:22;;;;;;;30.35;16.23;;;;;;;;;;5093440;28;20210;-67
2022/05/19 09:45:49;;;;;;;25.05;14.82;;;;;;;;;;5091501;28;20032;-68
2022/05/19 09:48:16;;;;;;;21.55;14.18;;;;;;;;;;5081479;28;20032;-68
2022/05/19 09:50:50;;;;;;;18.42;14.23;;;;;;;;;;5086378;28;20044;-68
2022/05/19 09:53:25;;;;;;;28.98;15.77;;;;;;;;;;5073420;28;20098;-68
2022/05/19 09:55:58;;;;;;;24.45;12.95;;;;;;;;;;5071419;28;20053;-68
2022/05/19 09:58:28;;;;;;;16.83;12.13;;;;;;;;;;5073202;28;20049;-67
2022/05/19 10:00:58;;;;;;;17.27;12.43;;;;;;;;;;5081578;28;20040;-68
2022/05/19 10:03:26;;;;;;;25.00;12.43;;;;;;;;;;5077588;28;20040;-68
2022/05/19 10:05:52;;;;;;;;;;;;;;;;;;5082490;28;20071;-67
2022/05/19 10:08:20;;;;;;;17.48;11.23;;;;;;;;;;5072851;28;20391;-68
2022/05/19 10:10:49;;;;;;;15.45;10.07;;;;;;;;;;5084943;28;20050;-68
2022/05/19 10:13:16;;;;;;;11.93;9.80;;;;;;;;;;5075255;28;20063;-68
2022/05/19 10:15:51;;;;;;;14.90;10.20;;;;;;;;;;5080828;28;20043;-68
2022/05/19 10:18:36;;;;;;;14.38;8.60;;;;;;;;;;5086092;28;20055;-68
2022/05/19 10:21:02;;;;;;;10.63;9.52;;;;;;;;;;5081463;28;20098;-68
2022/05/19 10:23:28;;;;;;;24.17;12.65;;;;;;;;;;5072892;28;20128;-68
2022/05/19 10:26:00;;;;;;;10.73;8.85;;;;;;;;;;5077336;28;20124;-69
2022/05/19 10:31:46;;;;;;;62.67;19.20;;;;;;;;;;5083770;28;20048;-68
2022/05/19 10:34:31;;;;;;;14.82;9.45;;;;;;;;;;5091889;28;20387;-68
2022/05/19 10:37:00;;;;;;;10.98;9.13;;;;;;;;;;5077377;28;20040;-68
2022/05/19 10:39:26;;;;;;;35.30;14.07;;;;;;;;;;5087477;28;20090;-68
2022/05/19 10:41:58;;;;;;;16.95;11.05;;;;;;;;;;5084745;28;20055;-68
2022/05/19 10:44:43;;;;;;;30.55;13.43;;;;;;;;;;5084506;28;20032;-68
2022/05/19 10:47:12;;;;;;;10.95;7.97;;;;;;;;;;5092741;28;20036;-68
2022/05/19 10:49:38;;;;;;;12.35;7.60;;;;;;;;;;5085634;28;20043;-68
2022/05/19 10:52:15;;;;;;;13.70;7.20;;;;;;;;;;5094269;28;20119;-67
2022/05/19 10:54:56;;;;;;;8.35;6.20;;;;;;;;;;5093454;28;20491;-68
2022/05/19 10:57:22;;;;;;;9.63;7.50;;;;;;;;;;5090501;28;20048;-68
2022/05/19 11:00:03;;;;;;;17.55;8.63;;;;;;;;;;5087105;28;20138;-67
2022/05/19 11:02:32;;;;;;;7.43;5.30;;;;;;;;;;5087975;28;20044;-68
2022/05/19 11:05:13;;;;;;;12.07;6.53;;;;;;;;;;5086642;28;20444;-68
2022/05/19 11:07:58;;;;;;;11.05;6.03;;;;;;;;;;5084201;28;20090;-67
2022/05/19 11:10:30;;;;;;;9.98;5.65;;;;;;;;;;5076511;28;20052;-69
2022/05/19 11:13:11;;;;;;;10.90;5.47;;;;;;;;;;5080543;28;20044;-67
2022/05/19 11:15:58;;;;;;;7.30;4.53;;;;;;;;;;5088473;28;20040;-69
2022/05/19 11:18:27;;;;;;;11.30;5.72;;;;;;;;;;5085974;28;20487;-67
2022/05/19 11:21:06;;;;;;;14.90;7.65;;;;;;;;;;5086899;28;20139;-67
2022/05/19 11:23:46;;;;;;;22.55;8.80;;;;;;;;;;5084948;28;20059;-70
2022/05/19 11:26:27;;;;;;;10.30;5.03;;;;;;;;;;5082440;28;20078;-69
2022/05/19 11:29:10;;;;;;;12.93;6.00;;;;;;;;;;5091688;28;20102;-71
2022/05/19 11:31:36;;;;;;;8.82;5.32;;;;;;;;;;5085962;28;20043;-67
2022/05/19 11:34:08;;;;;;;11.85;5.82;;;;;;;;;;5094494;28;20040;-68
2022/05/19 11:36:43;;;;;;;11.13;4.50;;;;;;;;;;5075874;28;20068;-67
2022/05/19 11:39:12;;;;;;;8.55;3.90;;;;;;;;;;5097441;28;20502;-67
2022/05/19 11:41:38;;;;;;;6.53;2.92;;;;;;;;;;5083180;28;20048;-67
2022/05/19 11:44:10;;;;;;;11.32;5.50;;;;;;;;;;5087683;28;20188;-67
2022/05/19 11:47:01;;;;;;;5.30;3.63;;;;;;;;;;5086999;28;20047;-66
2022/05/19 11:55:25;;;;;;;5.00;3.80;;;;;;;;;;5084187;28;20044;-66
2022/05/19 11:58:21;;;;;;;8.10;4.50;;;;;;;;;;5084443;28;20432;-66
2022/05/19 12:00:47;;;;;;;9.73;4.75;;;;;;;;;;5092921;28;20044;-67
2022/05/19 12:03:18;;;;;;;5.20;3.88;;;;;;;;;;5090908;28;20058;-67
2022/05/19 12:05:58;;;;;;;19.58;7.38;;;;;;;;;;5092290;28;20510;-67
2022/05/19 12:08:30;;;;;;;5.18;3.35;;;;;;;;;;5093654;28;20443;-67
2022/05/19 12:11:15;;;;;;;5.68;3.42;;;;;;;;;;5094123;28;20123;-67
2022/05/19 12:13:46;;;;;;;7.88;3.70;;;;;;;;;;5090967;28;20036;-67
2022/05/19 12:16:18;;;;;;;5.07;3.00;;;;;;;;;;5089435;28;20067;-68
2022/05/19 12:19:00;;;;;;;8.10;3.35;;;;;;;;;;5091621;28;20044;-68
2022/05/19 12:21:31;;;;;;;10.95;4.85;;;;;;;;;;5090737;28;20081;-68
2022/05/19 12:24:03;;;;;;;11.15;4.85;;;;;;;;;;5090448;28;20047;-68
2022/05/19 12:26:36;;;;;;;38.50;9.45;;;;;;;;;;5090794;28;20132;-67
2022/05/19 12:29:02;;;;;;;5.07;3.38;;;;;;;;;;5089762;28;20616;-67
2022/05/19 12:34:22;;;;;;;4.30;3.25;;;;;;;;;;5083896;28;20423;-67
2022/05/19 12:37:07;;;;;;;8.82;4.28;;;;;;;;;;5085649;28;20135;-68
2022/05/19 12:39:47;;;;;;;12.48;5.22;;;;;;;;;;5101090;28;20074;-68
2022/05/19 12:42:17;;;;;;;9.75;4.88;;;;;;;;;;5081185;28;20044;-69
2022/05/19 12:44:55;;;;;;;7.35;3.13;;;;;;;;;;5095592;28;20047;-67
2022/05/19 12:47:28;;;;;;;5.20;3.53;;;;;;;;;;5083759;28;20054;-68
2022/05/19 12:50:08;;;;;;;18.85;6.00;;;;;;;;;;5082797;28;20040;-69
2022/05/19 12:52:53;;;;;;;10.45;4.28;;;;;;;;;;5075367;28;20117;-68
2022/05/19 12:55:23;;;;;;;5.30;3.78;;;;;;;;;;5083323;28;20118;-68
2022/05/19 12:57:49;;;;;;;7.55;3.80;;;;;;;;;;5082212;28;20462;-68
2022/05/19 13:00:35;;;;;;;4.90;3.63;;;;;;;;;;5075856;28;20040;-68
2022/05/19 13:03:04;;;;;;;10.00;3.80;;;;;;;;;;5086068;28;20044;-68
2022/05/19 13:05:41;;;;;;;15.65;4.18;;;;;;;;;;5087537;28;20121;-70
2022/05/19 13:08:15;;;;;;;21.33;6.18;;;;;;;;;;5080811;28;20500;-68
2022/05/19 13:10:44;;;;;;;15.57;6.25;;;;;;;;;;5073966;28;20047;-68
2022/05/19 13:13:23;;;;;;;10.85;5.80;;;;;;;;;;5089223;28;20403;-69
2022/05/19 13:15:50;;;;;;;9.77;5.15;;;;;;;;;;5076291;28;20549;-68
2022/05/19 13:18:17;;;;;;;8.90;5.47;;;;;;;;;;5081038;28;20040;-69
2022/05/19 13:20:43;;;;;;;11.98;5.68;;;;;;;;;;5077914;28;20045;-69
2022/05/19 13:23:18;;;;;;;9.45;5.35;;;;;;;;;;5075238;28;20074;-69
2022/05/19 13:25:46;;;;;;;10.68;5.65;;;;;;;;;;5090063;28;20044;-68
2022/05/19 13:30:58;;;;;;;7.47;5.10;;;;;;;;;;5081879;28;20536;-71
2022/05/19 13:33:35;;;;;;;10.05;6.90;;;;;;;;;;5081246;28;20191;-69
2022/05/19 13:36:04;;;;;;;12.32;9.13;;;;;;;;;;5082772;28;20048;-71
2022/05/19 13:38:31;;;;;;;;;;;;;;;;;;5073574;28;20059;-68
2022/05/19 13:40:57;;;;;;;11.73;8.73;;;;;;;;;;5073058;28;19967;-69
2022/05/19 13:43:26;;;;;;;14.70;8.65;;;;;;;;;;5081862;28;20081;-68
2022/05/19 13:45:53;;;;;;;13.18;9.35;;;;;;;;;;5083626;28;20488;-69
2022/05/19 13:48:25;;;;;;;21.15;10.93;;;;;;;;;;5072801;28;20043;-69
2022/05/19 13:50:52;;;;;;;16.15;12.45;;;;;;;;;;5080729;28;20048;-69
2022/05/19 13:53:20;;;;;;;16.45;12.32;;;;;;;;;;5086340;28;20036;-69
2022/05/19 13:55:54;;;;;;;25.83;12.00;;;;;;;;;;5086341;28;20067;-68
2022/05/19 13:58:21;;;;;;;20.90;12.70;;;;;;;;;;5109376;28;20496;-71
2022/05/19 14:00:48;;;;;;;25.75;12.88;;;;;;;;;;5088086;28;20201;-71
2022/05/19 14:03:13;;;;;;;13.95;8.98;;;;;;;;;;5087742;28;20044;-69
2022/05/19 14:05:41;;;;;;;17.15;8.73;;;;;;;;;;5079183;28;20047;-69
2022/05/19 14:08:09;;;;;;;19.67;9.65;;;;;;;;;;5090932;28;20483;-69
2022/05/19 14:10:41;;;;;;;43.13;14.52;;;;;;;;;;5086770;28;20044;-70
2022/05/19 14:13:07;;;;;;;15.48;8.57;;;;;;;;;;5079572;28;20040;-71
2022/05/19 14:15:35;;;;;;;16.98;8.70;;;;;;;;;;5089053;28;20047;-69
2022/05/19 14:18:04;;;;;;;14.82;7.13;;;;;;;;;;5087615;28;20515;-69
2022/05/19 14:20:42;;;;;;;14.50;8.45;;;;;;;;;;5086527;28;20040;-70
2022/05/19 14:23:13;;;;;;;27.33;8.55;;;;;;;;;;5089146;28;20080;-70
2022/05/19 14:25:39;;;;;;;16.38;7.00;;;;;;;;;;5090491;28;20487;-70
2022/05/19 14:28:08;;;;;;;15.20;7.95;;;;;;;;;;5077388;28;20506;-69
2022/05/19 14:30:39;;;;;;;10.68;5.82;;;;;;;;;;5089785;28;20436;-69
2022/05/19 14:33:06;;;;;;;23.40;8.75;;;;;;;;;;5078588;28;20048;-70
2022/05/19 14:35:48;;;;;;;32.17;9.57;;;;;;;;;;5081480;28;20065;-70
2022/05/19 14:38:34;;;;;;;29.58;9.02;;;;;;;;;;5078497;28;20074;-70
2022/05/19 14:43:53;;;;;;;12.35;6.97;;;;;;;;;;5081790;28;20056;-69
2022/05/19 14:46:24;;;;;;;20.33;8.95;;;;;;;;;;5085001;28;20051;-69
2022/05/19 14:48:54;;;;;;;19.52;9.25;;;;;;;;;;5078759;28;20040;-69
2022/05/19 14:51:31;;;;;;;16.17;7.90;;;;;;;;;;5080166;28;20404;-69
2022/05/19 14:53:59;;;;;;;12.77;7.95;;;;;;;;;;5084700;28;20479;-68
2022/05/19 14:56:35;;;;;;;11.10;8.07;;;;;;;;;;5084396;28;20044;-70
2022/05/19 14:59:03;;;;;;;19.77;8.57;;;;;;;;;;5080908;28;20036;-70
2022/05/19 15:01:29;;;;;;;12.68;8.07;;;;;;;;;;5086823;28;20036;-69